createdAt,value
2022-08-18T00:01:49.142Z,18.70
2022-08-18T00:04:35.788Z,18.70
2022-08-18T00:07:03.255Z,18.70
2022-08-18T00:09:32.522Z,18.70
2022-08-18T00:12:01.958Z,18.70
2022-08-18T00:14:28.677Z,18.70
2022-08-18T00:16:55.367Z,18.70
2022-08-18T00:19:45.285Z,18.70
2022-08-18T00:22:14.943Z,18.70
2022-08-18T00:24:47.615Z,18.70
2022-08-18T00:27:14.676Z,18.60
2022-08-18T00:29:41.657Z,18.60
2022-08-18T00:32:17.365Z,18.60
2022-08-18T00:34:44.113Z,18.70
2022-08-18T00:37:10.789Z,18.70
2022-08-18T00:39:39.821Z,18.70
2022-08-18T00:42:14.356Z,18.70
2022-08-18T00:44:55.502Z,18.70
2022-08-18T00:47:41.420Z,18.70
2022-08-18T00:50:14.754Z,18.70
2022-08-18T00:52:45.885Z,18.70
2022-08-18T00:55:12.576Z,18.70
2022-08-18T00:57:40.291Z,18.80
2022-08-18T01:00:14.696Z,18.80
2022-08-18T01:02:52.886Z,18.80
2022-08-18T01:05:47.792Z,18.80
2022-08-18T01:08:16.461Z,18.80
2022-08-18T01:10:45.635Z,18.80
2022-08-18T01:13:12.488Z,18.80
2022-08-18T01:15:39.459Z,18.80
2022-08-18T01:18:29.495Z,18.80
2022-08-18T01:21:35.641Z,18.80
2022-08-18T01:24:05.610Z,18.80
2022-08-18T01:26:36.801Z,18.70
2022-08-18T01:29:11.577Z,18.70
2022-08-18T01:31:54.572Z,18.80
2022-08-18T01:34:24.529Z,18.70
2022-08-18T01:36:53.521Z,18.70
2022-08-18T01:41:21.186Z,18.70
2022-08-18T01:42:07.645Z,18.70
2022-08-18T01:44:34.461Z,18.70
2022-08-18T01:47:01.065Z,18.70
2022-08-18T01:49:28.760Z,18.70
2022-08-18T01:51:55.662Z,18.70
2022-08-18T01:54:22.736Z,18.70
2022-08-18T01:56:49.461Z,18.70
2022-08-18T01:59:16.451Z,18.70
2022-08-18T02:01:48.677Z,18.70
2022-08-18T02:04:34.967Z,18.70
2022-08-18T02:07:04.863Z,18.70
2022-08-18T02:09:31.670Z,18.70
2022-08-18T02:11:58.256Z,18.70
2022-08-18T02:14:27.344Z,18.70
2022-08-18T02:17:01.543Z,18.70
2022-08-18T02:19:36.744Z,18.70
2022-08-18T02:22:04.923Z,18.70
2022-08-18T02:24:31.594Z,18.70
2022-08-18T02:26:58.329Z,18.70
2022-08-18T02:29:24.930Z,18.70
2022-08-18T02:31:51.766Z,18.60
2022-08-18T02:34:18.415Z,18.50
2022-08-18T02:36:45.266Z,18.50
2022-08-18T02:39:11.848Z,18.40
2022-08-18T02:41:38.486Z,18.30
2022-08-18T02:44:07.422Z,18.30
2022-08-18T02:46:34.464Z,18.20
2022-08-18T02:49:01.470Z,18.20
2022-08-18T02:51:28.165Z,18.10
2022-08-18T02:53:59.055Z,18.10
2022-08-18T02:56:40.784Z,18.10
2022-08-18T02:59:11.711Z,18.00
2022-08-18T03:01:41.380Z,18.00
2022-08-18T03:04:10.971Z,18.00
2022-08-18T03:06:38.664Z,18.00
2022-08-18T03:09:07.158Z,18.00
2022-08-18T03:11:33.851Z,18.10
2022-08-18T03:14:01.184Z,18.10
2022-08-18T03:16:32.625Z,18.10
2022-08-18T03:19:01.208Z,18.10
2022-08-18T03:21:30.486Z,18.10
2022-08-18T03:24:00.416Z,18.10
2022-08-18T03:26:29.876Z,18.10
2022-08-18T03:28:58.826Z,18.10
2022-08-18T03:31:28.259Z,18.10
2022-08-18T03:33:59.360Z,18.10
2022-08-18T03:36:29.366Z,18.10
2022-08-18T03:38:56.919Z,18.10
2022-08-18T03:41:44.485Z,18.10
2022-08-18T03:44:14.900Z,18.10
2022-08-18T03:46:44.008Z,18.10
2022-08-18T03:49:11.525Z,18.10
2022-08-18T03:51:38.321Z,18.10
2022-08-18T03:54:06.083Z,18.10
2022-08-18T03:56:38.183Z,18.10
2022-08-18T03:59:12.235Z,18.10
2022-08-18T04:01:41.115Z,18.10
2022-08-18T04:04:10.411Z,18.10
2022-08-18T04:06:49.990Z,18.20
2022-08-18T04:09:17.920Z,18.20
2022-08-18T04:11:45.767Z,18.20
2022-08-18T04:14:15.797Z,18.20
2022-08-18T04:16:42.469Z,18.20
2022-08-18T04:19:10.037Z,18.20
2022-08-18T04:21:39.661Z,18.30
2022-08-18T04:24:07.615Z,18.20
2022-08-18T04:26:43.632Z,18.20
2022-08-18T04:29:11.447Z,18.20
2022-08-18T04:31:38.693Z,18.20
2022-08-18T04:34:06.284Z,18.20
2022-08-18T04:36:35.690Z,18.20
2022-08-18T04:39:05.334Z,18.30
2022-08-18T04:41:32.170Z,18.30
2022-08-18T04:44:01.007Z,18.30
2022-08-18T04:46:29.130Z,18.30
2022-08-18T04:48:58.902Z,18.30
2022-08-18T04:52:39.393Z,18.20
2022-08-18T04:54:15.925Z,18.10
2022-08-18T04:56:42.531Z,18.10
2022-08-18T04:59:11.738Z,18.10
2022-08-18T05:01:47.579Z,18.00
2022-08-18T05:04:16.421Z,18.00
2022-08-18T05:06:44.122Z,18.00
2022-08-18T05:09:12.306Z,17.90
2022-08-18T05:11:38.996Z,17.90
2022-08-18T05:14:08.318Z,17.90
2022-08-18T05:16:48.221Z,17.90
2022-08-18T05:19:21.928Z,17.90
2022-08-18T05:21:52.232Z,17.90
2022-08-18T05:24:20.777Z,17.90
2022-08-18T05:26:48.910Z,17.90
2022-08-18T05:29:18.506Z,18.00
2022-08-18T05:31:47.620Z,18.00
2022-08-18T05:34:14.350Z,18.00
2022-08-18T05:36:54.007Z,18.00
2022-08-18T05:39:32.778Z,18.10
2022-08-18T05:42:13.166Z,18.20
2022-08-18T05:44:44.463Z,18.30
2022-08-18T05:47:28.478Z,18.40
2022-08-18T05:49:57.359Z,18.50
2022-08-18T05:52:51.497Z,18.60
2022-08-18T05:55:51.675Z,18.70
2022-08-18T05:58:24.743Z,18.70
2022-08-18T06:01:09.078Z,18.70
2022-08-18T06:03:46.893Z,18.70
2022-08-18T06:06:22.646Z,18.70
2022-08-18T06:09:26.094Z,18.80
2022-08-18T06:11:58.550Z,18.90
2022-08-18T06:14:25.749Z,18.90
2022-08-18T06:17:02.898Z,18.90
2022-08-18T06:19:46.835Z,19.00
2022-08-18T06:22:53.205Z,19.00
2022-08-18T06:25:44.474Z,19.00
2022-08-18T06:28:15.763Z,19.00
2022-08-18T06:30:42.457Z,19.00
2022-08-18T06:33:29.607Z,19.10
2022-08-18T06:36:02.478Z,19.10
2022-08-18T06:38:57.602Z,19.20
2022-08-18T06:41:41.486Z,19.20
2022-08-18T06:44:16.118Z,19.50
2022-08-18T06:46:53.875Z,19.60
2022-08-18T06:50:02.830Z,19.80
2022-08-18T06:52:38.403Z,19.80
2022-08-18T06:55:15.792Z,19.90
2022-08-18T06:58:00.597Z,20.00
2022-08-18T07:00:32.725Z,20.00
2022-08-18T07:03:11.643Z,20.00
2022-08-18T07:05:55.298Z,20.00
2022-08-18T07:08:38.428Z,19.90
2022-08-18T07:11:28.087Z,20.00
2022-08-18T07:14:17.267Z,20.10
2022-08-18T07:16:58.215Z,20.10
2022-08-18T07:19:29.564Z,20.00
2022-08-18T07:22:09.730Z,20.10
2022-08-18T07:24:43.987Z,19.90
2022-08-18T07:27:12.566Z,20.00
2022-08-18T07:29:59.197Z,20.00
2022-08-18T07:32:32.255Z,20.00
2022-08-18T07:35:03.484Z,20.00
2022-08-18T07:38:24.699Z,20.00
2022-08-18T07:41:20.162Z,20.10
2022-08-18T07:43:52.672Z,20.20
2022-08-18T07:46:38.760Z,20.40
2022-08-18T07:49:07.003Z,20.60
2022-08-18T07:51:48.301Z,20.80
2022-08-18T07:54:48.780Z,20.90
2022-08-18T07:57:52.353Z,21.00
2022-08-18T08:01:00.177Z,21.20
2022-08-18T08:03:45.809Z,21.50
2022-08-18T08:06:19.273Z,21.70
2022-08-18T08:09:27.296Z,22.00
2022-08-18T08:12:04.459Z,22.20
2022-08-18T08:14:41.313Z,22.40
2022-08-18T08:17:24.034Z,22.60
2022-08-18T08:20:00.600Z,22.80
2022-08-18T08:22:36.816Z,22.80
2022-08-18T08:25:45.218Z,22.90
2022-08-18T08:28:18.403Z,23.00
2022-08-18T08:31:33.260Z,23.50
2022-08-18T08:34:12.226Z,23.70
2022-08-18T08:36:42.290Z,23.60
2022-08-18T08:39:24.887Z,23.60
2022-08-18T08:42:28.867Z,25.30
2022-08-18T08:44:59.952Z,27.70
2022-08-18T08:47:29.969Z,29.10
2022-08-18T08:50:14.395Z,29.20
2022-08-18T08:52:44.766Z,29.90
2022-08-18T08:55:21.491Z,31.20
2022-08-18T08:58:16.885Z,31.10
2022-08-18T09:00:44.798Z,30.50
2022-08-18T09:03:55.893Z,29.70
2022-08-18T09:06:26.272Z,28.80
2022-08-18T09:09:13.295Z,27.80
2022-08-18T09:11:58.546Z,27.10
2022-08-18T09:14:40.427Z,26.40
2022-08-18T09:17:12.978Z,25.80
2022-08-18T09:19:49.407Z,25.50
2022-08-18T09:22:43.744Z,25.20
2022-08-18T09:25:37.889Z,25.40
2022-08-18T09:28:12.878Z,25.80
2022-08-18T09:30:47.495Z,27.60
2022-08-18T09:33:44.368Z,29.90
2022-08-18T09:36:31.049Z,32.20
2022-08-18T09:39:38.581Z,33.10
2022-08-18T09:42:15.897Z,32.50
2022-08-18T09:44:48.670Z,31.10
2022-08-18T09:47:22.312Z,29.80
2022-08-18T09:49:53.601Z,28.60
2022-08-18T09:52:24.157Z,27.60
2022-08-18T09:55:06.422Z,26.80
2022-08-18T09:57:42.362Z,26.20
2022-08-18T10:00:14.041Z,25.80
2022-08-18T10:02:41.716Z,25.50
2022-08-18T10:05:21.135Z,25.20
2022-08-18T10:08:21.371Z,25.10
2022-08-18T10:11:08.867Z,25.80
2022-08-18T10:13:49.117Z,27.20
2022-08-18T10:16:23.111Z,28.00
2022-08-18T10:18:55.986Z,27.80
2022-08-18T10:21:31.389Z,27.50
2022-08-18T10:26:55.399Z,26.60
2022-08-18T10:29:25.674Z,26.20
2022-08-18T10:31:59.035Z,26.10
2022-08-18T10:34:51.477Z,25.90
2022-08-18T10:37:26.346Z,25.80
2022-08-18T10:39:59.327Z,25.80
2022-08-18T10:42:33.588Z,25.70
2022-08-18T10:45:16.051Z,25.60
2022-08-18T10:48:05.233Z,25.50
2022-08-18T10:50:58.786Z,25.50
2022-08-18T10:53:39.107Z,25.60
2022-08-18T10:56:45.473Z,25.80
2022-08-18T10:59:52.226Z,26.00
2022-08-18T11:02:40.172Z,26.30
2022-08-18T11:05:10.846Z,26.50
2022-08-18T11:07:42.856Z,26.80
2022-08-18T11:10:32.209Z,27.00
2022-08-18T11:13:08.858Z,27.20
2022-08-18T11:15:45.731Z,27.30
2022-08-18T11:18:43.375Z,27.30
2022-08-18T11:21:51.741Z,27.20
2022-08-18T11:24:21.047Z,27.20
2022-08-18T11:26:53.770Z,27.10
2022-08-18T11:29:32.574Z,27.00
2022-08-18T11:32:11.040Z,27.10
2022-08-18T11:34:41.205Z,27.40
2022-08-18T11:37:27.315Z,27.90
2022-08-18T11:39:59.207Z,28.20
2022-08-18T11:42:35.064Z,28.00
2022-08-18T11:45:12.542Z,27.70
2022-08-18T11:47:58.873Z,27.40
2022-08-18T11:50:33.000Z,27.10
2022-08-18T11:53:18.712Z,27.00
2022-08-18T11:56:30.892Z,27.10
2022-08-18T11:59:54.395Z,27.10
2022-08-18T12:02:25.286Z,27.00
2022-08-18T12:07:57.190Z,27.10
2022-08-18T12:10:28.975Z,27.60
2022-08-18T12:12:59.749Z,27.90
2022-08-18T12:15:44.458Z,28.20
2022-08-18T12:21:05.241Z,29.10
2022-08-18T12:23:39.123Z,29.40
2022-08-18T12:26:26.985Z,29.60
2022-08-18T12:29:03.682Z,29.80
2022-08-18T12:31:42.226Z,29.70
2022-08-18T12:34:14.953Z,29.30
2022-08-18T12:36:42.591Z,28.80
2022-08-18T12:39:10.318Z,28.40
2022-08-18T12:41:37.740Z,28.20
2022-08-18T12:44:04.817Z,27.90
2022-08-18T12:46:40.027Z,27.70
2022-08-18T12:49:18.555Z,27.90
2022-08-18T12:51:46.467Z,27.90
2022-08-18T12:57:33.209Z,27.60
2022-08-18T13:00:09.004Z,27.30
2022-08-18T13:02:42.224Z,27.00
2022-08-18T13:05:09.418Z,26.80
2022-08-18T13:07:36.260Z,26.80
2022-08-18T13:10:05.103Z,26.80
2022-08-18T13:12:32.774Z,26.80
2022-08-18T13:15:00.205Z,26.70
2022-08-18T13:17:32.690Z,26.50
2022-08-18T13:20:03.058Z,26.40
2022-08-18T13:22:32.362Z,26.30
2022-08-18T13:25:01.405Z,26.10
2022-08-18T13:27:33.054Z,26.00
2022-08-18T13:30:31.453Z,25.90
2022-08-18T13:33:02.438Z,25.70
2022-08-18T13:35:35.508Z,25.60
2022-08-18T13:38:12.356Z,25.50
2022-08-18T13:40:45.668Z,25.50
2022-08-18T13:43:15.295Z,25.50
2022-08-18T13:45:44.383Z,25.60
2022-08-18T13:48:11.323Z,25.60
2022-08-18T13:50:40.258Z,25.60
2022-08-18T13:53:19.352Z,25.60
2022-08-18T13:55:46.869Z,25.60
2022-08-18T13:58:20.189Z,25.60
2022-08-18T14:00:52.209Z,25.70
2022-08-18T14:03:30.836Z,25.90
2022-08-18T14:06:07.515Z,26.10
2022-08-18T14:08:34.774Z,26.30
2022-08-18T14:11:02.924Z,26.50
2022-08-18T14:13:30.140Z,26.60
2022-08-18T14:16:05.250Z,26.70
2022-08-18T14:18:31.874Z,26.80
2022-08-18T14:21:22.997Z,26.90
2022-08-18T14:24:10.577Z,27.10
2022-08-18T14:26:50.237Z,27.30
2022-08-18T14:29:45.776Z,27.20
2022-08-18T14:32:06.911Z,26.90
2022-08-18T14:34:33.606Z,26.40
2022-08-18T14:37:00.242Z,26.10
2022-08-18T14:39:28.227Z,25.80
2022-08-18T14:41:58.391Z,25.60
2022-08-18T14:44:31.790Z,25.60
2022-08-18T14:46:59.206Z,25.80
2022-08-18T14:49:28.369Z,26.00
2022-08-18T14:51:57.169Z,26.20
2022-08-18T14:54:24.123Z,26.30
2022-08-18T14:56:55.812Z,26.10
2022-08-18T14:59:25.640Z,26.00
2022-08-18T15:01:53.521Z,25.90
2022-08-18T15:04:20.926Z,25.90
2022-08-18T15:06:55.891Z,25.80
2022-08-18T15:09:26.997Z,25.80
2022-08-18T15:11:55.836Z,25.60
2022-08-18T15:14:32.573Z,25.60
2022-08-18T15:17:01.188Z,25.40
2022-08-18T15:19:58.894Z,25.10
2022-08-18T15:22:32.883Z,24.80
2022-08-18T15:25:18.273Z,24.50
2022-08-18T15:27:47.970Z,24.40
2022-08-18T15:30:20.409Z,24.30
2022-08-18T15:32:49.870Z,24.20
2022-08-18T15:35:19.450Z,24.10
2022-08-18T15:37:51.104Z,24.10
2022-08-18T15:40:30.556Z,24.10
2022-08-18T15:43:01.466Z,24.10
2022-08-18T15:45:35.585Z,24.10
2022-08-18T15:48:03.512Z,24.10
2022-08-18T15:50:30.441Z,24.00
2022-08-18T15:53:03.621Z,23.90
2022-08-18T15:55:35.902Z,23.80
2022-08-18T15:58:03.235Z,23.60
2022-08-18T16:00:42.112Z,23.50
2022-08-18T16:03:13.000Z,23.40
2022-08-18T16:06:00.467Z,23.50
2022-08-18T16:08:27.688Z,23.50
2022-08-18T16:10:54.993Z,23.50
2022-08-18T16:13:23.068Z,23.60
2022-08-18T16:15:50.222Z,23.70
2022-08-18T16:18:18.709Z,23.70
2022-08-18T16:20:45.405Z,23.70
2022-08-18T16:23:13.085Z,23.60
2022-08-18T16:25:41.348Z,23.40
2022-08-18T16:28:09.227Z,23.30
2022-08-18T16:30:36.261Z,23.20
2022-08-18T16:33:05.546Z,23.20
2022-08-18T16:35:33.834Z,23.10
2022-08-18T16:38:06.437Z,23.00
2022-08-18T16:40:33.205Z,23.00
2022-08-18T16:43:00.705Z,22.90
2022-08-18T16:45:28.571Z,22.90
2022-08-18T16:47:55.462Z,22.90
2022-08-18T16:50:23.377Z,23.00
2022-08-18T16:52:50.050Z,23.00
2022-08-18T16:55:17.249Z,23.00
2022-08-18T16:58:02.974Z,22.90
2022-08-18T17:00:55.086Z,22.90
2022-08-18T17:03:42.090Z,22.90
2022-08-18T17:06:12.457Z,22.90
2022-08-18T17:08:40.843Z,22.90
2022-08-18T17:11:17.796Z,22.90
2022-08-18T17:13:46.729Z,23.00
2022-08-18T17:16:13.797Z,22.90
2022-08-18T17:18:41.356Z,22.70
2022-08-18T17:21:10.160Z,22.60
2022-08-18T17:23:38.893Z,22.40
2022-08-18T17:26:08.461Z,22.30
2022-08-18T17:28:50.119Z,22.20
2022-08-18T17:31:24.348Z,22.10
2022-08-18T17:33:53.239Z,21.90
2022-08-18T17:36:27.286Z,21.80
2022-08-18T17:39:01.300Z,21.70
2022-08-18T17:41:28.437Z,21.60
2022-08-18T17:43:57.208Z,21.60
2022-08-18T17:46:29.041Z,21.50
2022-08-18T17:49:11.728Z,21.50
2022-08-18T17:51:52.683Z,21.40
2022-08-18T17:54:32.413Z,21.40
2022-08-18T17:57:23.306Z,21.30
2022-08-18T18:00:01.696Z,21.10
2022-08-18T18:02:31.158Z,21.00
2022-08-18T18:05:05.592Z,20.90
2022-08-18T18:07:38.657Z,20.80
2022-08-18T18:10:23.833Z,20.80
2022-08-18T18:13:10.781Z,20.70
2022-08-18T18:15:40.173Z,20.70
2022-08-18T18:18:23.812Z,20.50
2022-08-18T18:21:22.193Z,20.50
2022-08-18T18:24:13.980Z,20.30
2022-08-18T18:26:46.059Z,20.20
2022-08-18T18:29:16.716Z,20.20
2022-08-18T18:31:58.218Z,20.10
2022-08-18T18:34:33.874Z,20.00
2022-08-18T18:37:02.502Z,20.00
2022-08-18T18:39:35.605Z,19.90
2022-08-18T18:42:23.424Z,19.80
2022-08-18T18:45:03.040Z,19.70
2022-08-18T18:47:57.620Z,19.60
2022-08-18T18:50:24.505Z,19.50
2022-08-18T18:52:57.174Z,19.40
2022-08-18T18:55:26.893Z,19.30
2022-08-18T18:58:11.176Z,19.20
2022-08-18T19:00:54.066Z,19.20
2022-08-18T19:03:49.257Z,19.10
2022-08-18T19:06:18.961Z,19.00
2022-08-18T19:08:59.511Z,19.00
2022-08-18T19:12:05.156Z,18.90
2022-08-18T19:14:36.345Z,18.80
2022-08-18T19:17:10.147Z,18.90
2022-08-18T19:19:44.272Z,18.80
2022-08-18T19:22:19.180Z,18.70
2022-08-18T19:24:56.735Z,18.70
2022-08-18T19:27:56.176Z,18.60
2022-08-18T19:30:23.496Z,18.60
2022-08-18T19:32:54.906Z,18.50
2022-08-18T19:35:42.806Z,18.50
2022-08-18T19:38:24.042Z,18.40
2022-08-18T19:41:13.751Z,18.30
2022-08-18T19:43:50.077Z,18.30
2022-08-18T19:46:26.777Z,18.20
2022-08-18T19:49:01.302Z,18.20
2022-08-18T19:51:37.405Z,18.10
2022-08-18T19:54:26.669Z,18.10
2022-08-18T19:57:08.552Z,18.10
2022-08-18T20:00:12.680Z,18.10
2022-08-18T20:03:04.165Z,18.00
2022-08-18T20:05:57.589Z,17.90
2022-08-18T20:08:58.076Z,17.90
2022-08-18T20:12:10.102Z,17.80
2022-08-18T20:14:39.232Z,17.70
2022-08-18T20:17:17.149Z,17.70
2022-08-18T20:19:52.543Z,17.60
2022-08-18T20:22:24.757Z,17.60
2022-08-18T20:24:53.408Z,17.50
2022-08-18T20:27:49.292Z,17.50
2022-08-18T20:30:25.705Z,17.40
2022-08-18T20:33:16.589Z,17.40
2022-08-18T20:35:51.774Z,17.30
2022-08-18T20:38:20.342Z,17.30
2022-08-18T20:40:50.558Z,17.30
2022-08-18T20:43:33.486Z,17.20
2022-08-18T20:46:33.713Z,17.10
2022-08-18T20:49:16.771Z,17.10
2022-08-18T20:51:58.397Z,17.00
2022-08-18T20:54:58.577Z,17.00
2022-08-18T20:57:29.779Z,16.90
2022-08-18T21:00:22.745Z,16.90
2022-08-18T21:02:56.617Z,16.80
2022-08-18T21:05:35.752Z,16.80
2022-08-18T21:08:16.044Z,16.80
2022-08-18T21:10:52.474Z,16.70
2022-08-18T21:13:42.233Z,16.70
2022-08-18T21:16:09.784Z,16.60
2022-08-18T21:18:37.580Z,16.60
2022-08-18T21:21:06.901Z,16.50
2022-08-18T21:23:37.522Z,16.50
2022-08-18T21:26:07.133Z,16.50
2022-08-18T21:28:37.469Z,16.50
2022-08-18T21:31:42.007Z,16.40
2022-08-18T21:34:00.613Z,16.40
2022-08-18T21:36:32.207Z,16.40
2022-08-18T21:39:05.671Z,16.40
2022-08-18T21:41:33.899Z,16.30
2022-08-18T21:44:08.132Z,16.30
2022-08-18T21:46:34.926Z,16.20
2022-08-18T21:49:03.893Z,16.20
2022-08-18T21:51:46.470Z,16.20
2022-08-18T21:54:17.956Z,16.10
2022-08-18T21:56:44.780Z,16.10
2022-08-18T21:59:18.407Z,16.10
2022-08-18T22:01:55.309Z,16.10
2022-08-18T22:04:33.450Z,16.00
2022-08-18T22:07:07.393Z,16.00
2022-08-18T22:10:17.083Z,16.00
2022-08-18T22:13:16.463Z,16.00
2022-08-18T22:15:49.226Z,16.00
2022-08-18T22:18:19.058Z,15.90
2022-08-18T22:20:52.253Z,15.90
2022-08-18T22:23:52.580Z,15.80
2022-08-18T22:26:36.516Z,15.80
2022-08-18T22:29:05.861Z,15.80
2022-08-18T22:31:41.578Z,15.80
2022-08-18T22:34:30.428Z,15.80
2022-08-18T22:37:00.763Z,15.80
2022-08-18T22:39:29.601Z,15.80
2022-08-18T22:41:57.461Z,15.80
2022-08-18T22:44:24.571Z,15.80
2022-08-18T22:46:52.826Z,15.80
2022-08-18T22:49:21.170Z,15.80
2022-08-18T22:51:49.671Z,15.80
2022-08-18T22:54:18.399Z,15.80
2022-08-18T22:56:56.351Z,15.90
2022-08-18T22:59:25.431Z,15.90
2022-08-18T23:01:54.092Z,15.90
2022-08-18T23:04:22.870Z,15.80
2022-08-18T23:06:52.665Z,15.80
2022-08-18T23:09:31.061Z,15.80
2022-08-18T23:12:03.503Z,15.70
2022-08-18T23:14:32.548Z,15.60
2022-08-18T23:17:00.971Z,15.70
2022-08-18T23:19:31.333Z,15.60
2022-08-18T23:21:59.275Z,15.60
2022-08-18T23:24:25.906Z,15.60
2022-08-18T23:26:53.095Z,15.50
2022-08-18T23:29:21.295Z,15.50
2022-08-18T23:31:49.724Z,15.50
2022-08-18T23:34:19.704Z,15.40
2022-08-18T23:36:55.554Z,15.40
2022-08-18T23:39:24.557Z,15.40
2022-08-18T23:41:53.404Z,15.40
2022-08-18T23:44:20.981Z,15.30
2022-08-18T23:46:50.530Z,15.30
2022-08-18T23:49:17.510Z,15.30
2022-08-18T23:51:50.913Z,15.30
2022-08-18T23:54:21.543Z,15.30
2022-08-18T23:56:48.725Z,15.30
2022-08-18T23:59:20.765Z,15.30
